| time (UTC) | temp C | wind direction | speed KPH | gust KPH | rain 1hr cm | rain 24hr cm | rain mn cm | humidity % | barometer mb |
| 20260510192646 | 20 | 5 | 0.0 | 3.2 | 0.10 | 0.10 | 0.08 | 82 | 1014.5 |
| 20260510191909 | 20 | 5 | 0.0 | 3.2 | 0.08 | 0.08 | 0.08 | 80 | 1014.6 |
| 20260510191403 | 21 | 5 | 0.0 | 3.2 | 0.08 | 0.08 | 0.08 | 78 | 1014.6 |
| 20260510190903 | 21 | 5 | 1.6 | 6.4 | 0.08 | 0.08 | 0.08 | 76 | 1014.6 |
| 20260510190402 | 21 | 5 | 3.2 | 19.3 | 0.05 | 0.05 | 0.05 | 73 | 1014.6 |
| 20260510185903 | 21 | 355 | 4.8 | 19.3 | 0.05 | 0.05 | 0.03 | 70 | 1014.6 |
| 20260510185404 | 22 | 17 | 8.0 | 20.9 | 0.03 | 0.03 | 0.03 | 69 | 1014.7 |
| 20260510184903 | 22 | 355 | 11.3 | 22.5 | 0.00 | 0.00 | 0.00 | 65 | 1014.6 |
| 20260510184405 | 22 | 5 | 6.4 | 22.5 | 0.00 | 0.00 | 0.00 | 64 | 1014.7 |
| 20260510184140 | 22 | 336 | 1.6 | 8.0 | 0.00 | 0.00 | 0.00 | 64 | 1014.7 |
| 20260510183402 | 22 | 313 | 1.6 | 11.3 | 0.00 | 0.00 | 0.00 | 62 | 1014.7 |
| 20260510182903 | 22 | 0 | 1.6 | 11.3 | 0.00 | 0.00 | 0.00 | 61 | 1014.5 |
| 20260510182403 | 22 | 343 | 0.0 | 4.8 | 0.00 | 0.00 | 0.00 | 66 | 1014.4 |
| 20260510181903 | 22 | 343 | 0.0 | 8.0 | 0.00 | 0.00 | 0.00 | 63 | 1014.4 |
| 20260510181402 | 23 | 343 | 1.6 | 8.0 | 0.00 | 0.00 | 0.00 | 64 | 1014.6 |
| 20260510181138 | 23 | 321 | 3.2 | 8.0 | 0.00 | 0.00 | 0.00 | 60 | 1014.6 |
| 20260510180405 | 23 | 355 | 3.2 | 16.1 | 0.00 | 0.00 | 0.00 | 59 | 1014.7 |
| 20260510180135 | 24 | 340 | 3.2 | 16.1 | 0.00 | 0.00 | 0.00 | 57 | 1014.7 |
| 20260510175403 | 25 | 334 | 4.8 | 16.1 | 0.00 | 0.00 | 0.00 | 50 | 1014.6 |
| 20260510174901 | 25 | 340 | 4.8 | 16.1 | 0.00 | 0.00 | 0.00 | 46 | 1014.4 |
| 20260510174643 | 25 | 13 | 3.2 | 9.7 | 0.00 | 0.00 | 0.00 | 48 | 1014.4 |
| 20260510173903 | 26 | 26 | 4.8 | 11.3 | 0.00 | 0.00 | 0.00 | 48 | 1014.5 |
| 20260510173635 | 26 | 323 | 3.2 | 12.9 | 0.00 | 0.00 | 0.00 | 47 | 1014.6 |
| 20260510172900 | 26 | 311 | 3.2 | 12.9 | 0.00 | 0.00 | 0.00 | 50 | 1014.5 |
| 20260510172401 | 25 | 320 | 4.8 | 14.5 | 0.00 | 0.00 | 0.00 | 49 | 1014.4 |
| 20260510171901 | 25 | 257 | 4.8 | 14.5 | 0.00 | 0.00 | 0.00 | 46 | 1014.4 |
| 20260510171402 | 25 | 306 | 3.2 | 11.3 | 0.00 | 0.00 | 0.00 | 49 | 1014.6 |
| 20260510171133 | 25 | 277 | 3.2 | 11.3 | 0.00 | 0.00 | 0.00 | 52 | 1014.5 |
| 20260510170401 | 25 | 210 | 3.2 | 12.9 | 0.00 | 0.00 | 0.00 | 53 | 1014.5 |
| 20260510165903 | 25 | 355 | 3.2 | 14.5 | 0.00 | 0.00 | 0.00 | 55 | 1014.5 |
| 20260510165401 | 24 | 301 | 3.2 | 14.5 | 0.00 | 0.00 | 0.00 | 56 | 1014.6 |
| 20260510164901 | 24 | 355 | 3.2 | 12.9 | 0.00 | 0.00 | 0.00 | 54 | 1014.6 |
| 20260510164401 | 24 | 337 | 3.2 | 12.9 | 0.00 | 0.00 | 0.00 | 55 | 1014.5 |
| 20260510163902 | 23 | 344 | 1.6 | 6.4 | 0.00 | 0.00 | 0.00 | 52 | 1014.5 |
| 20260510163357 | 23 | 338 | 1.6 | 8.0 | 0.00 | 0.00 | 0.00 | 59 | 1014.5 |
| 20260510163129 | 23 | 283 | 1.6 | 9.7 | 0.00 | 0.00 | 0.00 | 58 | 1014.6 |
| 20260510162345 | 23 | 148 | 1.6 | 9.7 | 0.00 | 0.00 | 0.00 | 59 | 1014.5 |
| 20260510161842 | 22 | 148 | 3.2 | 9.7 | 0.00 | 0.00 | 0.00 | 60 | 1014.6 |
| 20260510161610 | 22 | 254 | 3.2 | 11.3 | 0.00 | 0.00 | 0.00 | 59 | 1014.6 |
| 20260510160829 | 22 | 11 | 3.2 | 11.3 | 0.00 | 0.00 | 0.00 | 60 | 1014.6 |
| 20260510160329 | 22 | 317 | 1.6 | 6.4 | 0.00 | 0.00 | 0.00 | 62 | 1014.7 |
| 20260510155829 | 21 | 198 | 1.6 | 6.4 | 0.00 | 0.00 | 0.00 | 63 | 1014.6 |
| 20260510155330 | 21 | 139 | 1.6 | 6.4 | 0.00 | 0.00 | 0.00 | 64 | 1014.6 |
| 20260510154829 | 21 | 311 | 1.6 | 6.4 | 0.00 | 0.00 | 0.00 | 71 | 1014.6 |
| 20260510154605 | 21 | 263 | 1.6 | 6.4 | 0.00 | 0.00 | 0.00 | 66 | 1014.6 |
| 20260510153829 | 21 | 267 | 1.6 | 6.4 | 0.00 | 0.00 | 0.00 | 67 | 1014.8 |
| 20260510153330 | 21 | 150 | 3.2 | 8.0 | 0.00 | 0.00 | 0.00 | 67 | 1014.8 |
| 20260510152830 | 20 | 260 | 3.2 | 16.1 | 0.00 | 0.00 | 0.00 | 69 | 1014.8 |
| 20260510152604 | 20 | 355 | 3.2 | 16.1 | 0.00 | 0.00 | 0.00 | 70 | 1014.7 |
| 20260510151830 | 20 | 229 | 4.8 | 16.1 | 0.00 | 0.00 | 0.00 | 71 | 1014.8 |
| 20260510151329 | 20 | 324 | 3.2 | 16.1 | 0.00 | 0.00 | 0.00 | 70 | 1014.7 |
| 20260510150830 | 19 | 238 | 3.2 | 8.0 | 0.00 | 0.00 | 0.00 | 75 | 1014.6 |
| 20260510150329 | 18 | 196 | 1.6 | 8.0 | 0.00 | 0.00 | 0.00 | 75 | 1014.6 |
| 20260510145329 | 18 | 292 | 1.6 | 6.4 | 0.00 | 0.00 | 0.00 | 77 | 1014.6 |
| 20260510144832 | 18 | 9 | 1.6 | 4.8 | 0.00 | 0.00 | 0.00 | 77 | 1014.5 |
| 20260510144605 | 17 | 274 | 1.6 | 4.8 | 0.00 | 0.00 | 0.00 | 79 | 1014.6 |
| 20260510143829 | 17 | 241 | 1.6 | 4.8 | 0.00 | 0.00 | 0.00 | 82 | 1014.7 |
| 20260510143331 | 17 | 252 | 3.2 | 6.4 | 0.00 | 0.00 | 0.00 | 84 | 1014.7 |
| 20260510142829 | 16 | 9 | 3.2 | 6.4 | 0.00 | 0.00 | 0.00 | 86 | 1014.7 |
| 20260510142329 | 16 | 168 | 1.6 | 6.4 | 0.00 | 0.00 | 0.00 | 87 | 1014.7 |
| 20260510141831 | 16 | 161 | 1.6 | 6.4 | 0.00 | 0.00 | 0.00 | 88 | 1014.7 |
| 20260510141328 | 15 | 217 | 1.6 | 4.8 | 0.00 | 0.00 | 0.00 | 90 | 1014.8 |
| 20260510140830 | 15 | 153 | 1.6 | 4.8 | 0.00 | 0.00 | 0.00 | 91 | 1014.8 |
| 20260510140328 | 15 | 298 | 0.0 | 4.8 | 0.00 | 0.00 | 0.00 | 92 | 1014.7 |
| 20260510135826 | 15 | 239 | 0.0 | 4.8 | 0.00 | 0.00 | 0.00 | 93 | 1014.8 |
| 20260510135345 | 13 | 203 | 0.0 | 0.0 | 0.00 | 0.00 | 0.00 | 94 | 1014.7 |
| 20260510135336 | 14 | 327 | 1.6 | 4.8 | 0.00 | 0.00 | 0.00 | 94 | 1014.7 |
| 20260510135102 | 14 | 333 | 1.6 | 4.8 | 0.00 | 0.00 | 0.00 | 94 | 1014.7 |
| 20260510133821 | 13 | 210 | 0.0 | 0.0 | 0.00 | 0.00 | 0.00 | 94 | 1014.8 |
| 20260510133320 | 13 | 199 | 0.0 | 0.0 | 0.00 | 0.00 | 0.00 | 95 | 1014.7 |
| 20260510132818 | 13 | 290 | 0.0 | 0.0 | 0.00 | 0.00 | 0.00 | 95 | 1014.8 |
| 20260510132316 | 13 | 36 | 0.0 | 0.0 | 0.00 | 0.00 | 0.00 | 95 | 1014.8 |
| 20260510131819 | 12 | 35 | 0.0 | 0.0 | 0.00 | 0.00 | 0.00 | 95 | 1014.7 |
| 20260510131313 | 12 | 35 | 0.0 | 0.0 | 0.00 | 0.00 | 0.00 | 95 | 1014.6 |
| 20260510130813 | 12 | 28 | 0.0 | 0.0 | 0.00 | 0.00 | 0.00 | 95 | 1014.8 |
| 20260510130608 | 12 | 27 | 0.0 | 0.0 | 0.00 | 0.00 | 0.00 | 95 | 1014.9 |
| 20260510130328 | 12 | 28 | 0.0 | 0.0 | 0.00 | 0.00 | 0.00 | 95 | 1014.9 |
| 20260510125310 | 11 | 27 | 0.0 | 0.0 | 0.00 | 0.00 | 0.00 | 95 | 1014.8 |
| 20260510124809 | 11 | 27 | 0.0 | 0.0 | 0.00 | 0.00 | 0.00 | 94 | 1014.8 |
| 20260510124306 | 11 | 26 | 0.0 | 0.0 | 0.00 | 0.00 | 0.00 | 94 | 1014.8 |
| 20260510123808 | 11 | 26 | 0.0 | 0.0 | 0.00 | 0.00 | 0.00 | 95 | 1014.8 |
| 20260510123310 | 11 | 26 | 0.0 | 0.0 | 0.00 | 0.00 | 0.00 | 95 | 1014.8 |
| 20260510122806 | 11 | 26 | 0.0 | 0.0 | 0.00 | 0.00 | 0.00 | 95 | 1014.8 |
| 20260510122306 | 11 | 26 | 0.0 | 0.0 | 0.00 | 0.00 | 0.00 | 94 | 1014.9 |
| 20260510121804 | 11 | 26 | 0.0 | 0.0 | 0.00 | 0.00 | 0.00 | 94 | 1014.8 |
| 20260510121543 | 11 | 26 | 0.0 | 0.0 | 0.00 | 0.00 | 0.00 | 95 | 1014.8 |
| 20260510120804 | 11 | 26 | 0.0 | 4.8 | 0.00 | 0.00 | 0.00 | 95 | 1014.7 |
| 20260510120304 | 11 | 20 | 0.0 | 4.8 | 0.00 | 0.00 | 0.00 | 94 | 1014.6 |
| 20260510115804 | 10 | 17 | 1.6 | 6.4 | 0.00 | 0.00 | 0.00 | 95 | 1014.5 |
| 20260510115305 | 10 | 355 | 1.6 | 6.4 | 0.00 | 0.00 | 0.00 | 95 | 1014.4 |
| 20260510114802 | 10 | 351 | 1.6 | 6.4 | 0.00 | 0.00 | 0.00 | 94 | 1014.2 |
| 20260510114301 | 10 | 117 | 0.0 | 3.2 | 0.00 | 0.00 | 0.00 | 94 | 1014.0 |
| 20260510113802 | 10 | 117 | 0.0 | 3.2 | 0.00 | 0.00 | 0.00 | 95 | 1014.0 |
| 20260510113301 | 10 | 117 | 1.6 | 6.4 | 0.00 | 0.00 | 0.00 | 95 | 1014.0 |
| 20260510113034 | 10 | 117 | 3.2 | 9.7 | 0.00 | 0.00 | 0.00 | 94 | 1014.1 |
| 20260510112305 | 10 | 0 | 4.8 | 9.7 | 0.00 | 0.00 | 0.00 | 94 | 1014.0 |
| 20260510111802 | 10 | 343 | 3.2 | 9.7 | 0.00 | 0.00 | 0.00 | 94 | 1014.3 |
| 20260510111301 | 9 | 16 | 3.2 | 9.7 | 0.00 | 0.00 | 0.00 | 94 | 1014.2 |
| 20260510111038 | 9 | 355 | 1.6 | 4.8 | 0.00 | 0.00 | 0.00 | 94 | 1014.1 |
| 20260510110539 | 9 | 0 | 0.0 | 4.8 | 0.00 | 0.00 | 0.00 | 94 | 1013.7 |
| 20260510105801 | 9 | 0 | 0.0 | 4.8 | 0.00 | 0.00 | 0.00 | 94 | 1013.7 |
| 20260510105312 | 9 | 0 | 1.6 | 6.4 | 0.00 | 0.00 | 0.00 | 94 | 1013.6 |
| 20260510105306 | 9 | 0 | 0.0 | 4.8 | 0.00 | 0.00 | 0.00 | 94 | 1013.7 |
| 20260510104301 | 9 | 0 | 1.6 | 6.4 | 0.00 | 0.00 | 0.00 | 94 | 1013.5 |
| 20260510103802 | 9 | 9 | 1.6 | 8.0 | 0.00 | 0.00 | 0.00 | 94 | 1013.4 |
| 20260510103301 | 9 | 0 | 1.6 | 8.0 | 0.00 | 0.00 | 0.00 | 94 | 1013.4 |
| 20260510102815 | 9 | 355 | 0.0 | 0.0 | 0.00 | 0.00 | 0.00 | 94 | 1013.1 |
| 20260510102806 | 9 | 355 | 0.0 | 0.0 | 0.00 | 0.00 | 0.00 | 94 | 1013.4 |
| 20260510101802 | 9 | 355 | 0.0 | 0.0 | 0.00 | 0.00 | 0.00 | 94 | 1013.0 |
| 20260510101300 | 9 | 355 | 0.0 | 0.0 | 0.00 | 0.00 | 0.00 | 94 | 1013.1 |
| 20260510100801 | 9 | 355 | 0.0 | 0.0 | 0.00 | 0.00 | 0.00 | 94 | 1013.2 |
| 20260510100301 | 9 | 355 | 0.0 | 0.0 | 0.00 | 0.00 | 0.00 | 94 | 1013.2 |
| 20260510095802 | 9 | 355 | 0.0 | 0.0 | 0.00 | 0.00 | 0.00 | 94 | 1013.1 |
| 20260510095305 | 9 | 355 | 0.0 | 8.0 | 0.00 | 0.00 | 0.00 | 94 | 1012.9 |
| 20260510095036 | 9 | 355 | 0.0 | 8.0 | 0.00 | 0.00 | 0.00 | 94 | 1013.0 |
| 20260510094302 | 9 | 355 | 1.6 | 8.0 | 0.00 | 0.00 | 0.00 | 94 | 1012.9 |
| 20260510093801 | 9 | 355 | 3.2 | 8.0 | 0.00 | 0.00 | 0.00 | 94 | 1012.9 |
| 20260510093303 | 9 | 355 | 1.6 | 8.0 | 0.00 | 0.00 | 0.00 | 94 | 1012.8 |
| 20260510092802 | 9 | 0 | 1.6 | 8.0 | 0.00 | 0.00 | 0.00 | 94 | 1012.9 |
| 20260510092306 | 9 | 355 | 1.6 | 8.0 | 0.00 | 0.00 | 0.00 | 94 | 1012.8 |
| 20260510091802 | 9 | 22 | 3.2 | 9.7 | 0.00 | 0.00 | 0.00 | 94 | 1012.8 |
| 20260510091301 | 9 | 347 | 3.2 | 9.7 | 0.00 | 0.00 | 0.00 | 94 | 1012.9 |
| 20260510090803 | 9 | 344 | 3.2 | 9.7 | 0.00 | 0.00 | 0.00 | 94 | 1012.8 |
| 20260510090301 | 9 | 321 | 1.6 | 12.9 | 0.00 | 0.00 | 0.00 | 94 | 1013.0 |
| 20260510085802 | 9 | 84 | 3.2 | 12.9 | 0.00 | 0.00 | 0.00 | 94 | 1012.6 |
| 20260510085300 | 9 | 321 | 3.2 | 12.9 | 0.00 | 0.00 | 0.00 | 94 | 1013.3 |
| 20260510084755 | 9 | 15 | 4.8 | 12.9 | 0.00 | 0.00 | 0.00 | 94 | 1012.9 |
| 20260510084244 | 9 | 348 | 4.8 | 16.1 | 0.00 | 0.00 | 0.00 | 94 | 1012.7 |
| 20260510083741 | 8 | 315 | 4.8 | 16.1 | 0.00 | 0.00 | 0.00 | 93 | 1013.3 |
| 20260510083243 | 8 | 355 | 1.6 | 14.5 | 0.00 | 0.00 | 0.00 | 93 | 1013.1 |
| 20260510082740 | 8 | 355 | 0.0 | 0.0 | 0.00 | 0.00 | 0.00 | 93 | 1012.5 |
| 20260510082237 | 8 | 355 | 0.0 | 0.0 | 0.00 | 0.00 | 0.00 | 93 | 1012.5 |
| 20260510081737 | 8 | 355 | 0.0 | 0.0 | 0.00 | 0.00 | 0.00 | 93 | 1012.5 |
| 20260510081235 | 8 | 355 | 0.0 | 0.0 | 0.00 | 0.00 | 0.00 | 93 | 1012.3 |
| 20260510080736 | 9 | 355 | 0.0 | 0.0 | 0.00 | 0.00 | 0.00 | 93 | 1012.3 |
| 20260510080508 | 9 | 355 | 0.0 | 0.0 | 0.00 | 0.00 | 0.00 | 93 | 1012.3 |
| 20260510075731 | 9 | 187 | 0.0 | 0.0 | 0.00 | 0.00 | 0.00 | 93 | 1012.3 |
| 20260510075233 | 9 | 187 | 0.0 | 0.0 | 0.00 | 0.00 | 0.00 | 93 | 1012.3 |
| 20260510074730 | 9 | 187 | 0.0 | 0.0 | 0.00 | 0.00 | 0.00 | 93 | 1012.3 |
| 20260510074231 | 9 | 187 | 0.0 | 0.0 | 0.00 | 0.00 | 0.00 | 93 | 1012.3 |
| 20260510073732 | 9 | 187 | 0.0 | 0.0 | 0.00 | 0.00 | 0.00 | 93 | 1012.3 |
| 20260510073229 | 9 | 187 | 0.0 | 0.0 | 0.00 | 0.00 | 0.00 | 93 | 1012.2 |
| 20260510073006 | 9 | 187 | 0.0 | 0.0 | 0.00 | 0.00 | 0.00 | 93 | 1012.2 |
| 20260510072231 | 9 | 187 | 0.0 | 0.0 | 0.00 | 0.00 | 0.00 | 93 | 1012.2 |
| 20260510071731 | 9 | 187 | 0.0 | 0.0 | 0.00 | 0.00 | 0.00 | 93 | 1012.1 |
| 20260510071229 | 9 | 187 | 0.0 | 0.0 | 0.00 | 0.00 | 0.00 | 93 | 1012.0 |
| 20260510070732 | 9 | 187 | 0.0 | 0.0 | 0.00 | 0.00 | 0.00 | 93 | 1011.9 |
| 20260510070230 | 9 | 187 | 0.0 | 0.0 | 0.00 | 0.00 | 0.00 | 93 | 1011.7 |
| 20260510065730 | 9 | 187 | 0.0 | 0.0 | 0.00 | 0.00 | 0.00 | 93 | 1011.7 |
| 20260510065229 | 9 | 187 | 0.0 | 0.0 | 0.00 | 0.00 | 0.00 | 93 | 1011.8 |
| 20260510064730 | 9 | 187 | 0.0 | 0.0 | 0.00 | 0.00 | 0.00 | 93 | 1011.7 |
| 20260510064229 | 9 | 187 | 0.0 | 0.0 | 0.00 | 0.00 | 0.00 | 93 | 1011.8 |
| 20260510063729 | 9 | 187 | 0.0 | 0.0 | 0.00 | 0.00 | 0.00 | 93 | 1011.8 |
| 20260510063230 | 9 | 187 | 0.0 | 0.0 | 0.00 | 0.00 | 0.00 | 93 | 1011.9 |
| 20260510062730 | 9 | 187 | 0.0 | 0.0 | 0.00 | 0.00 | 0.00 | 93 | 1012.0 |
| 20260510062228 | 9 | 187 | 0.0 | 0.0 | 0.00 | 0.00 | 0.00 | 93 | 1012.0 |
| 20260510061726 | 9 | 187 | 0.0 | 0.0 | 0.00 | 0.00 | 0.00 | 93 | 1012.0 |
| 20260510061224 | 9 | 187 | 0.0 | 0.0 | 0.00 | 0.00 | 0.00 | 92 | 1012.0 |
| 20260510060726 | 9 | 187 | 0.0 | 0.0 | 0.00 | 0.00 | 0.00 | 92 | 1012.0 |
| 20260510060225 | 9 | 187 | 0.0 | 0.0 | 0.00 | 0.00 | 0.00 | 92 | 1012.0 |
| 20260510055723 | 9 | 187 | 0.0 | 0.0 | 0.00 | 0.00 | 0.00 | 92 | 1012.0 |
| 20260510055224 | 9 | 187 | 0.0 | 0.0 | 0.00 | 0.00 | 0.00 | 92 | 1012.1 |
| 20260510054721 | 9 | 187 | 0.0 | 0.0 | 0.00 | 0.00 | 0.00 | 92 | 1012.1 |
| 20260510054224 | 9 | 187 | 0.0 | 0.0 | 0.00 | 0.00 | 0.00 | 92 | 1012.2 |
| 20260510053719 | 9 | 187 | 0.0 | 0.0 | 0.00 | 0.00 | 0.00 | 92 | 1012.2 |
| 20260510053449 | 9 | 187 | 0.0 | 0.0 | 0.00 | 0.00 | 0.00 | 92 | 1012.2 |
| 20260510052717 | 9 | 187 | 0.0 | 0.0 | 0.00 | 0.00 | 0.00 | 92 | 1012.2 |
| 20260510052452 | 9 | 187 | 0.0 | 0.0 | 0.00 | 0.00 | 0.00 | 92 | 1012.3 |
| 20260510051718 | 9 | 187 | 0.0 | 0.0 | 0.00 | 0.00 | 0.00 | 92 | 1012.4 |
| 20260510051222 | 10 | 187 | 0.0 | 0.0 | 0.00 | 0.00 | 0.00 | 91 | 1012.4 |
| 20260510050717 | 10 | 187 | 0.0 | 0.0 | 0.00 | 0.00 | 0.00 | 91 | 1012.4 |
| 20260510050216 | 10 | 187 | 0.0 | 0.0 | 0.00 | 0.00 | 0.00 | 91 | 1012.5 |
| 20260510050008 | 10 | 187 | 0.0 | 0.0 | 0.00 | 0.00 | 0.00 | 91 | 1012.5 |
| 20260510050004 | 10 | 187 | 0.0 | 0.0 | 0.00 | 0.00 | 0.00 | 91 | 1012.4 |
| 20260510044717 | 10 | 187 | 0.0 | 0.0 | 0.00 | 0.00 | 0.00 | 91 | 1012.5 |
| 20260510044218 | 10 | 187 | 0.0 | 0.0 | 0.00 | 0.00 | 0.00 | 91 | 1012.6 |
| 20260510043749 | 10 | 187 | 0.0 | 0.0 | 0.00 | 0.00 | 0.00 | 91 | 1012.6 |
| 20260510043740 | 10 | 187 | 0.0 | 0.0 | 0.00 | 0.00 | 0.00 | 91 | 1012.6 |
| 20260510043223 | 10 | 187 | 0.0 | 0.0 | 0.00 | 0.00 | 0.00 | 91 | 1012.6 |
| 20260510042217 | 10 | 187 | 0.0 | 0.0 | 0.00 | 0.00 | 0.00 | 91 | 1012.6 |
| 20260510041716 | 10 | 187 | 0.0 | 0.0 | 0.00 | 0.00 | 0.00 | 91 | 1012.6 |
| 20260510041216 | 10 | 187 | 0.0 | 0.0 | 0.00 | 0.00 | 0.00 | 91 | 1012.7 |
| 20260510040737 | 10 | 187 | 0.0 | 0.0 | 0.00 | 0.00 | 0.00 | 91 | 1012.7 |
| 20260510040728 | 10 | 187 | 0.0 | 0.0 | 0.00 | 0.00 | 0.00 | 91 | 1012.7 |
| 20260510040451 | 10 | 187 | 0.0 | 0.0 | 0.00 | 0.00 | 0.00 | 91 | 1012.7 |
| 20260510035222 | 10 | 187 | 0.0 | 0.0 | 0.00 | 0.00 | 0.00 | 91 | 1012.6 |
| 20260510035216 | 10 | 187 | 0.0 | 0.0 | 0.00 | 0.00 | 0.00 | 91 | 1012.8 |
| 20260510034210 | 10 | 187 | 0.0 | 0.0 | 0.00 | 0.00 | 0.00 | 91 | 1012.5 |
| 20260510033708 | 10 | 187 | 0.0 | 0.0 | 0.00 | 0.00 | 0.00 | 91 | 1012.6 |
| 20260510033209 | 10 | 187 | 0.0 | 0.0 | 0.00 | 0.00 | 0.00 | 90 | 1012.3 |
| 20260510032708 | 10 | 187 | 0.0 | 0.0 | 0.00 | 0.00 | 0.00 | 90 | 1012.6 |
| 20260510032205 | 10 | 187 | 0.0 | 0.0 | 0.00 | 0.00 | 0.00 | 90 | 1012.4 |
| 20260510031938 | 10 | 187 | 0.0 | 0.0 | 0.00 | 0.00 | 0.00 | 89 | 1012.3 |
| 20260510031206 | 10 | 187 | 0.0 | 0.0 | 0.00 | 0.00 | 0.00 | 89 | 1012.3 |
| 20260510030704 | 10 | 187 | 0.0 | 0.0 | 0.00 | 0.00 | 0.00 | 89 | 1012.3 |
| 20260510030201 | 10 | 187 | 0.0 | 0.0 | 0.00 | 0.00 | 0.00 | 89 | 1012.2 |
| 20260510025702 | 10 | 187 | 0.0 | 0.0 | 0.00 | 0.00 | 0.00 | 89 | 1012.1 |
| 20260510025202 | 10 | 187 | 0.0 | 0.0 | 0.00 | 0.00 | 0.00 | 89 | 1012.1 |
| 20260510024701 | 10 | 187 | 0.0 | 0.0 | 0.00 | 0.00 | 0.00 | 89 | 1012.1 |
| 20260510024201 | 10 | 187 | 0.0 | 0.0 | 0.00 | 0.00 | 0.00 | 89 | 1012.0 |
| 20260510023701 | 11 | 187 | 0.0 | 0.0 | 0.00 | 0.00 | 0.00 | 89 | 1012.1 |
| 20260510023204 | 11 | 187 | 0.0 | 0.0 | 0.00 | 0.00 | 0.00 | 89 | 1012.1 |
| 20260510022701 | 11 | 187 | 0.0 | 0.0 | 0.00 | 0.00 | 0.00 | 89 | 1012.1 |
| 20260510022202 | 11 | 187 | 0.0 | 0.0 | 0.00 | 0.00 | 0.00 | 88 | 1012.2 |
| 20260510021926 | 11 | 187 | 0.0 | 0.0 | 0.00 | 0.00 | 0.00 | 88 | 1012.2 |
| 20260510021706 | 11 | 187 | 0.0 | 0.0 | 0.00 | 0.00 | 0.00 | 88 | 1012.2 |
| 20260510021202 | 11 | 187 | 0.0 | 0.0 | 0.00 | 0.00 | 0.00 | 88 | 1012.2 |
| 20260510020702 | 11 | 187 | 0.0 | 0.0 | 0.00 | 0.00 | 0.00 | 88 | 1012.1 |
| 20260510020203 | 11 | 187 | 0.0 | 0.0 | 0.00 | 0.00 | 0.00 | 88 | 1012.1 |
| 20260510015701 | 11 | 187 | 0.0 | 0.0 | 0.00 | 0.00 | 0.00 | 87 | 1012.1 |
| 20260510015204 | 11 | 187 | 0.0 | 0.0 | 0.00 | 0.00 | 0.00 | 87 | 1012.0 |
| 20260510014701 | 11 | 187 | 0.0 | 0.0 | 0.00 | 0.00 | 0.00 | 87 | 1012.0 |
| 20260510014202 | 11 | 187 | 0.0 | 0.0 | 0.00 | 0.00 | 0.00 | 87 | 1011.9 |
| 20260510013702 | 11 | 187 | 0.0 | 0.0 | 0.00 | 0.00 | 0.00 | 87 | 1011.9 |
| 20260510013201 | 11 | 187 | 0.0 | 0.0 | 0.00 | 0.00 | 0.00 | 86 | 1011.8 |
| 20260510012702 | 12 | 187 | 0.0 | 0.0 | 0.00 | 0.00 | 0.00 | 86 | 1011.9 |
| 20260510012206 | 12 | 187 | 0.0 | 0.0 | 0.00 | 0.00 | 0.00 | 86 | 1011.8 |
| 20260510011702 | 12 | 187 | 0.0 | 0.0 | 0.00 | 0.00 | 0.00 | 85 | 1011.8 |
| 20260510011431 | 12 | 187 | 0.0 | 0.0 | 0.00 | 0.00 | 0.00 | 85 | 1011.9 |
| 20260510010659 | 12 | 187 | 0.0 | 0.0 | 0.00 | 0.00 | 0.00 | 85 | 1011.8 |
| 20260510010157 | 12 | 187 | 0.0 | 0.0 | 0.00 | 0.00 | 0.00 | 84 | 1011.6 |
| 20260510005653 | 12 | 187 | 0.0 | 0.0 | 0.00 | 0.00 | 0.00 | 84 | 1011.6 |
| 20260510005151 | 12 | 187 | 0.0 | 0.0 | 0.00 | 0.00 | 0.00 | 84 | 1011.6 |
| 20260510004651 | 13 | 187 | 0.0 | 0.0 | 0.00 | 0.00 | 0.00 | 83 | 1011.6 |
| 20260510004153 | 13 | 187 | 0.0 | 0.0 | 0.00 | 0.00 | 0.00 | 83 | 1011.6 |
| 20260510003650 | 13 | 186 | 0.0 | 0.0 | 0.00 | 0.00 | 0.00 | 82 | 1011.6 |
| 20260510003147 | 13 | 186 | 0.0 | 0.0 | 0.00 | 0.00 | 0.00 | 82 | 1011.5 |
| 20260510002647 | 13 | 186 | 0.0 | 0.0 | 0.00 | 0.00 | 0.00 | 82 | 1011.5 |
| 20260510002149 | 13 | 186 | 0.0 | 0.0 | 0.00 | 0.00 | 0.00 | 82 | 1011.5 |
| 20260510001647 | 13 | 186 | 0.0 | 0.0 | 0.00 | 0.00 | 0.00 | 81 | 1011.6 |
| 20260510001143 | 14 | 186 | 0.0 | 0.0 | 0.00 | 0.00 | 0.00 | 81 | 1011.6 |
| 20260510000641 | 14 | 186 | 0.0 | 0.0 | 0.00 | 0.00 | 0.00 | 81 | 1011.5 |
| 20260510000140 | 14 | 349 | 0.0 | 0.0 | 0.00 | 0.00 | 0.00 | 81 | 1011.5 |
| 20260509235638 | 14 | 349 | 0.0 | 0.0 | 0.00 | 0.00 | 0.00 | 80 | 1011.5 |
| 20260509235136 | 14 | 349 | 0.0 | 0.0 | 0.00 | 0.00 | 0.00 | 80 | 1011.6 |
| 20260509234635 | 15 | 348 | 0.0 | 0.0 | 0.00 | 0.00 | 0.00 | 80 | 1011.6 |
| 20260509234411 | 15 | 348 | 0.0 | 1.6 | 0.00 | 0.00 | 0.00 | 80 | 1011.6 |
| 20260509233633 | 15 | 348 | 0.0 | 1.6 | 0.00 | 0.00 | 0.00 | 80 | 1011.5 |
| 20260509233131 | 15 | 349 | 0.0 | 3.2 | 0.00 | 0.00 | 0.00 | 80 | 1011.5 |
| 20260509232904 | 15 | 349 | 0.0 | 3.2 | 0.00 | 0.00 | 0.00 | 80 | 1011.5 |
| 20260509232123 | 15 | 347 | 0.0 | 1.6 | 0.00 | 0.00 | 0.00 | 80 | 1011.5 |
| 20260509231617 | 15 | 355 | 0.0 | 0.0 | 0.00 | 0.00 | 0.00 | 80 | 1011.5 |
| 20260509231112 | 15 | 355 | 0.0 | 0.0 | 0.00 | 0.00 | 0.00 | 80 | 1011.4 |
| 20260509230605 | 15 | 355 | 0.0 | 0.0 | 0.00 | 0.00 | 0.00 | 80 | 1011.4 |
| 20260509230353 | 15 | 331 | 0.0 | 0.0 | 0.00 | 0.00 | 0.00 | 80 | 1011.4 |
| 20260509230114 | 15 | 332 | 0.0 | 0.0 | 0.00 | 0.00 | 0.00 | 80 | 1011.3 |
| 20260509225101 | 15 | 333 | 0.0 | 0.0 | 0.00 | 0.00 | 0.00 | 80 | 1011.3 |
| 20260509224603 | 15 | 331 | 0.0 | 4.8 | 0.00 | 0.00 | 0.00 | 79 | 1011.3 |
| 20260509224102 | 15 | 321 | 0.0 | 4.8 | 0.00 | 0.00 | 0.00 | 79 | 1011.4 |
| 20260509223603 | 15 | 334 | 1.6 | 8.0 | 0.00 | 0.00 | 0.00 | 80 | 1011.4 |
| 20260509223101 | 15 | 333 | 1.6 | 8.0 | 0.00 | 0.00 | 0.00 | 80 | 1011.4 |
| 20260509222604 | 15 | 350 | 0.0 | 4.8 | 0.00 | 0.00 | 0.00 | 81 | 1011.5 |
| 20260509222102 | 15 | 355 | 0.0 | 4.8 | 0.00 | 0.00 | 0.00 | 81 | 1011.5 |
| 20260509221602 | 15 | 355 | 0.0 | 4.8 | 0.00 | 0.00 | 0.00 | 82 | 1011.5 |
| 20260509221101 | 15 | 355 | 0.0 | 4.8 | 0.00 | 0.00 | 0.00 | 82 | 1011.4 |
| 20260509220837 | 15 | 349 | 0.0 | 4.8 | 0.00 | 0.00 | 0.00 | 83 | 1011.4 |
| 20260509215603 | 15 | 355 | 1.6 | 4.8 | 0.00 | 0.00 | 0.00 | 82 | 1011.4 |
| 20260509215102 | 14 | 49 | 0.0 | 8.0 | 0.00 | 0.00 | 0.00 | 82 | 1011.6 |
| 20260509214601 | 14 | 341 | 1.6 | 8.0 | 0.00 | 0.00 | 0.00 | 81 | 1011.6 |
| 20260509214102 | 14 | 342 | 3.2 | 9.7 | 0.00 | 0.00 | 0.00 | 81 | 1011.5 |
| 20260509213601 | 14 | 5 | 3.2 | 9.7 | 0.00 | 0.00 | 0.00 | 81 | 1011.6 |
| 20260509213105 | 15 | 347 | 1.6 | 9.7 | 0.00 | 0.00 | 0.00 | 80 | 1011.6 |
| 20260509212601 | 15 | 5 | 1.6 | 9.7 | 0.00 | 0.00 | 0.00 | 81 | 1011.4 |
| 20260509212102 | 15 | 345 | 3.2 | 12.9 | 0.00 | 0.00 | 0.00 | 81 | 1011.5 |
| 20260509211602 | 15 | 355 | 4.8 | 12.9 | 0.00 | 0.00 | 0.00 | 80 | 1011.4 |
| 20260509211339 | 15 | 5 | 3.2 | 12.9 | 0.00 | 0.00 | 0.00 | 80 | 1011.4 |
| 20260509210602 | 15 | 343 | 3.2 | 8.0 | 0.00 | 0.00 | 0.00 | 80 | 1011.4 |
| 20260509205602 | 15 | 355 | 1.6 | 9.7 | 0.00 | 0.00 | 0.00 | 80 | 1011.3 |
| 20260509205101 | 15 | 355 | 1.6 | 14.5 | 0.00 | 0.00 | 0.00 | 80 | 1011.3 |
| 20260509204601 | 15 | 355 | 3.2 | 14.5 | 0.00 | 0.00 | 0.00 | 80 | 1011.3 |
| 20260509204101 | 15 | 349 | 4.8 | 14.5 | 0.00 | 0.00 | 0.00 | 79 | 1011.3 |
| 20260509203605 | 15 | 351 | 6.4 | 14.5 | 0.00 | 0.00 | 0.00 | 78 | 1011.5 |
| 20260509203103 | 15 | 53 | 4.8 | 14.5 | 0.00 | 0.00 | 0.00 | 79 | 1011.5 |
| 20260509202601 | 15 | 334 | 3.2 | 14.5 | 0.00 | 0.00 | 0.00 | 79 | 1011.5 |
| 20260509202350 | 15 | 350 | 6.4 | 14.5 | 0.00 | 0.00 | 0.00 | 77 | 1011.4 |
| 20260509202110 | 15 | 0 | 4.8 | 14.5 | 0.00 | 0.00 | 0.00 | 78 | 1011.4 |
| 20260509201100 | 15 | 336 | 4.8 | 16.1 | 0.00 | 0.00 | 0.00 | 78 | 1011.4 |
| 20260509200602 | 15 | 0 | 6.4 | 16.1 | 0.00 | 0.00 | 0.00 | 79 | 1011.5 |
| 20260509200341 | 15 | 9 | 8.0 | 16.1 | 0.00 | 0.00 | 0.00 | 78 | 1011.6 |
| 20260509195601 | 15 | 5 | 8.0 | 17.7 | 0.00 | 0.00 | 0.00 | 77 | 1011.6 |
| 20260509195101 | 15 | 346 | 6.4 | 17.7 | 0.00 | 0.00 | 0.00 | 78 | 1011.6 |
| 20260509194603 | 15 | 5 | 8.0 | 17.7 | 0.00 | 0.00 | 0.00 | 77 | 1011.4 |
| 20260509194103 | 15 | 334 | 6.4 | 17.7 | 0.00 | 0.00 | 0.00 | 78 | 1011.3 |
| 20260509193603 | 15 | 355 | 4.8 | 17.7 | 0.00 | 0.00 | 0.00 | 78 | 1011.5 |
| 20260509193101 | 15 | 355 | 8.0 | 17.7 | 0.00 | 0.00 | 0.00 | 78 | 1011.7 |